sensor_id;sensor_type;location;lat;lon;timestamp;temperature;humidity
74946;HTU21D;63509;45.250;38.102;2023-11-21T00:00:20;4.90;79.96
74946;HTU21D;63509;45.250;38.102;2023-11-21T00:02:46;4.93;79.98
74946;HTU21D;63509;45.250;38.102;2023-11-21T00:05:13;4.94;79.97
74946;HTU21D;63509;45.250;38.102;2023-11-21T00:07:40;4.96;79.95
74946;HTU21D;63509;45.250;38.102;2023-11-21T00:10:08;5.00;79.96
74946;HTU21D;63509;45.250;38.102;2023-11-21T00:12:36;4.98;79.95
74946;HTU21D;63509;45.250;38.102;2023-11-21T00:15:02;4.95;79.95
74946;HTU21D;63509;45.250;38.102;2023-11-21T00:17:28;4.94;79.98
74946;HTU21D;63509;45.250;38.102;2023-11-21T00:19:54;4.94;79.97
74946;HTU21D;63509;45.250;38.102;2023-11-21T00:22:20;4.91;79.96
74946;HTU21D;63509;45.250;38.102;2023-11-21T00:24:47;4.90;79.98
74946;HTU21D;63509;45.250;38.102;2023-11-21T00:27:13;4.90;79.98
74946;HTU21D;63509;45.250;38.102;2023-11-21T00:29:40;4.84;80.00
74946;HTU21D;63509;45.250;38.102;2023-11-21T00:32:07;4.83;80.01
74946;HTU21D;63509;45.250;38.102;2023-11-21T00:34:33;4.87;80.04
74946;HTU21D;63509;45.250;38.102;2023-11-21T00:37:00;4.89;80.03
74946;HTU21D;63509;45.250;38.102;2023-11-21T00:39:26;4.92;80.03
74946;HTU21D;63509;45.250;38.102;2023-11-21T00:41:52;4.94;79.96
74946;HTU21D;63509;45.250;38.102;2023-11-21T00:44:18;4.96;79.95
74946;HTU21D;63509;45.250;38.102;2023-11-21T00:46:45;4.98;79.89
74946;HTU21D;63509;45.250;38.102;2023-11-21T00:49:11;4.98;79.90
74946;HTU21D;63509;45.250;38.102;2023-11-21T00:51:37;5.02;79.91
74946;HTU21D;63509;45.250;38.102;2023-11-21T00:54:03;5.04;79.90
74946;HTU21D;63509;45.250;38.102;2023-11-21T00:56:29;5.06;79.91
74946;HTU21D;63509;45.250;38.102;2023-11-21T00:58:56;5.07;79.88
74946;HTU21D;63509;45.250;38.102;2023-11-21T01:01:22;5.06;79.85
74946;HTU21D;63509;45.250;38.102;2023-11-21T01:03:49;5.05;79.86
74946;HTU21D;63509;45.250;38.102;2023-11-21T01:06:15;5.04;79.88
74946;HTU21D;63509;45.250;38.102;2023-11-21T01:08:43;5.02;79.88
74946;HTU21D;63509;45.250;38.102;2023-11-21T01:11:11;5.01;79.90
74946;HTU21D;63509;45.250;38.102;2023-11-21T01:13:43;5.02;79.91
74946;HTU21D;63509;45.250;38.102;2023-11-21T01:16:10;5.04;79.88
74946;HTU21D;63509;45.250;38.102;2023-11-21T01:18:37;5.04;79.84
74946;HTU21D;63509;45.250;38.102;2023-11-21T01:21:04;5.04;79.84
74946;HTU21D;63509;45.250;38.102;2023-11-21T01:23:31;5.02;79.82
74946;HTU21D;63509;45.250;38.102;2023-11-21T01:25:57;5.00;79.83
74946;HTU21D;63509;45.250;38.102;2023-11-21T01:28:23;4.98;79.82
74946;HTU21D;63509;45.250;38.102;2023-11-21T01:30:49;4.98;79.83
74946;HTU21D;63509;45.250;38.102;2023-11-21T01:33:15;4.98;79.82
74946;HTU21D;63509;45.250;38.102;2023-11-21T01:35:42;4.98;79.79
74946;HTU21D;63509;45.250;38.102;2023-11-21T01:38:12;4.97;79.77
74946;HTU21D;63509;45.250;38.102;2023-11-21T01:40:39;4.96;79.78
74946;HTU21D;63509;45.250;38.102;2023-11-21T01:43:05;4.97;79.79
74946;HTU21D;63509;45.250;38.102;2023-11-21T01:45:31;4.97;79.80
74946;HTU21D;63509;45.250;38.102;2023-11-21T01:48:00;5.00;79.80
74946;HTU21D;63509;45.250;38.102;2023-11-21T01:50:26;5.02;79.74
74946;HTU21D;63509;45.250;38.102;2023-11-21T01:52:53;4.98;79.72
74946;HTU21D;63509;45.250;38.102;2023-11-21T01:55:20;4.96;79.72
74946;HTU21D;63509;45.250;38.102;2023-11-21T01:57:46;4.94;79.72
74946;HTU21D;63509;45.250;38.102;2023-11-21T02:00:13;4.93;79.75
74946;HTU21D;63509;45.250;38.102;2023-11-21T02:05:11;4.90;79.78
74946;HTU21D;63509;45.250;38.102;2023-11-21T02:07:40;4.91;79.79
74946;HTU21D;63509;45.250;38.102;2023-11-21T02:10:07;4.94;79.78
74946;HTU21D;63509;45.250;38.102;2023-11-21T02:12:34;4.95;79.71
74946;HTU21D;63509;45.250;38.102;2023-11-21T02:15:05;4.95;79.75
74946;HTU21D;63509;45.250;38.102;2023-11-21T02:17:36;4.96;79.81
74946;HTU21D;63509;45.250;38.102;2023-11-21T02:20:02;4.98;79.84
74946;HTU21D;63509;45.250;38.102;2023-11-21T02:22:32;5.02;79.81
74946;HTU21D;63509;45.250;38.102;2023-11-21T02:25:01;5.03;79.77
74946;HTU21D;63509;45.250;38.102;2023-11-21T02:27:29;5.03;79.80
74946;HTU21D;63509;45.250;38.102;2023-11-21T02:29:56;5.05;79.79
74946;HTU21D;63509;45.250;38.102;2023-11-21T02:32:22;5.07;79.78
74946;HTU21D;63509;45.250;38.102;2023-11-21T02:34:51;5.06;79.75
74946;HTU21D;63509;45.250;38.102;2023-11-21T02:37:17;5.06;79.78
74946;HTU21D;63509;45.250;38.102;2023-11-21T02:39:45;5.04;79.77
74946;HTU21D;63509;45.250;38.102;2023-11-21T02:42:13;5.03;79.80
74946;HTU21D;63509;45.250;38.102;2023-11-21T02:44:42;5.03;79.81
74946;HTU21D;63509;45.250;38.102;2023-11-21T02:47:10;4.98;79.79
74946;HTU21D;63509;45.250;38.102;2023-11-21T02:49:40;4.96;79.82
74946;HTU21D;63509;45.250;38.102;2023-11-21T02:52:06;4.94;79.88
74946;HTU21D;63509;45.250;38.102;2023-11-21T02:54:33;4.96;79.88
74946;HTU21D;63509;45.250;38.102;2023-11-21T02:57:02;4.96;79.85
74946;HTU21D;63509;45.250;38.102;2023-11-21T02:59:29;4.95;79.79
74946;HTU21D;63509;45.250;38.102;2023-11-21T03:01:55;4.96;79.82
74946;HTU21D;63509;45.250;38.102;2023-11-21T03:04:23;4.96;79.84
74946;HTU21D;63509;45.250;38.102;2023-11-21T03:06:49;4.96;79.84
74946;HTU21D;63509;45.250;38.102;2023-11-21T03:09:15;4.95;79.85
74946;HTU21D;63509;45.250;38.102;2023-11-21T03:11:42;4.96;79.85
74946;HTU21D;63509;45.250;38.102;2023-11-21T03:14:08;4.96;79.84
74946;HTU21D;63509;45.250;38.102;2023-11-21T03:16:35;4.95;79.87
74946;HTU21D;63509;45.250;38.102;2023-11-21T03:19:01;4.96;79.86
74946;HTU21D;63509;45.250;38.102;2023-11-21T03:21:27;4.97;79.85
74946;HTU21D;63509;45.250;38.102;2023-11-21T03:23:55;4.97;79.82
74946;HTU21D;63509;45.250;38.102;2023-11-21T03:26:21;5.01;79.82
74946;HTU21D;63509;45.250;38.102;2023-11-21T03:28:47;5.01;79.73
74946;HTU21D;63509;45.250;38.102;2023-11-21T03:31:13;5.02;79.74
74946;HTU21D;63509;45.250;38.102;2023-11-21T03:33:41;5.02;79.73
74946;HTU21D;63509;45.250;38.102;2023-11-21T03:36:08;5.00;79.74
74946;HTU21D;63509;45.250;38.102;2023-11-21T03:38:35;5.00;79.72
74946;HTU21D;63509;45.250;38.102;2023-11-21T03:41:02;5.01;79.75
74946;HTU21D;63509;45.250;38.102;2023-11-21T03:43:29;5.00;79.72
74946;HTU21D;63509;45.250;38.102;2023-11-21T03:45:56;5.01;79.73
74946;HTU21D;63509;45.250;38.102;2023-11-21T03:48:22;5.01;79.74
74946;HTU21D;63509;45.250;38.102;2023-11-21T03:50:50;5.02;79.74
74946;HTU21D;63509;45.250;38.102;2023-11-21T03:53:17;5.02;79.72
74946;HTU21D;63509;45.250;38.102;2023-11-21T03:55:43;5.02;79.73
74946;HTU21D;63509;45.250;38.102;2023-11-21T03:58:11;5.01;79.75
74946;HTU21D;63509;45.250;38.102;2023-11-21T04:00:37;5.02;79.74
74946;HTU21D;63509;45.250;38.102;2023-11-21T04:03:03;5.02;79.75
74946;HTU21D;63509;45.250;38.102;2023-11-21T04:05:30;5.04;79.72
74946;HTU21D;63509;45.250;38.102;2023-11-21T04:07:57;5.04;79.71
74946;HTU21D;63509;45.250;38.102;2023-11-21T04:10:23;5.05;79.70
74946;HTU21D;63509;45.250;38.102;2023-11-21T04:12:50;5.07;79.69
74946;HTU21D;63509;45.250;38.102;2023-11-21T04:15:16;5.07;79.69
74946;HTU21D;63509;45.250;38.102;2023-11-21T04:17:43;5.08;79.68
74946;HTU21D;63509;45.250;38.102;2023-11-21T04:20:12;5.09;79.66
74946;HTU21D;63509;45.250;38.102;2023-11-21T04:22:39;5.11;79.66
74946;HTU21D;63509;45.250;38.102;2023-11-21T04:25:14;5.10;79.62
74946;HTU21D;63509;45.250;38.102;2023-11-21T04:27:41;5.08;79.65
74946;HTU21D;63509;45.250;38.102;2023-11-21T04:30:11;5.08;79.71
74946;HTU21D;63509;45.250;38.102;2023-11-21T04:32:38;5.10;79.72
74946;HTU21D;63509;45.250;38.102;2023-11-21T04:35:05;5.09;79.74
74946;HTU21D;63509;45.250;38.102;2023-11-21T04:37:31;5.12;79.71
74946;HTU21D;63509;45.250;38.102;2023-11-21T04:39:57;5.15;79.69
74946;HTU21D;63509;45.250;38.102;2023-11-21T04:42:23;5.17;79.66
74946;HTU21D;63509;45.250;38.102;2023-11-21T04:44:50;5.18;79.70
74946;HTU21D;63509;45.250;38.102;2023-11-21T04:47:16;5.18;79.66
74946;HTU21D;63509;45.250;38.102;2023-11-21T04:49:46;5.17;79.68
74946;HTU21D;63509;45.250;38.102;2023-11-21T04:52:15;5.16;79.70
74946;HTU21D;63509;45.250;38.102;2023-11-21T04:54:41;5.16;79.73
74946;HTU21D;63509;45.250;38.102;2023-11-21T04:57:07;5.15;79.72
74946;HTU21D;63509;45.250;38.102;2023-11-21T04:59:34;5.16;79.69
74946;HTU21D;63509;45.250;38.102;2023-11-21T05:02:00;5.16;79.70
74946;HTU21D;63509;45.250;38.102;2023-11-21T05:04:27;5.17;79.72
74946;HTU21D;63509;45.250;38.102;2023-11-21T05:06:53;5.18;79.72
74946;HTU21D;63509;45.250;38.102;2023-11-21T05:09:20;5.21;79.70
74946;HTU21D;63509;45.250;38.102;2023-11-21T05:11:47;5.25;79.71
74946;HTU21D;63509;45.250;38.102;2023-11-21T05:14:14;5.27;79.67
74946;HTU21D;63509;45.250;38.102;2023-11-21T05:16:40;5.28;79.66
74946;HTU21D;63509;45.250;38.102;2023-11-21T05:19:06;5.30;79.64
74946;HTU21D;63509;45.250;38.102;2023-11-21T05:21:32;5.30;79.65
74946;HTU21D;63509;45.250;38.102;2023-11-21T05:23:58;5.28;79.66
74946;HTU21D;63509;45.250;38.102;2023-11-21T05:26:24;5.30;79.62
74946;HTU21D;63509;45.250;38.102;2023-11-21T05:28:51;5.30;79.62
74946;HTU21D;63509;45.250;38.102;2023-11-21T05:31:17;5.30;79.62
74946;HTU21D;63509;45.250;38.102;2023-11-21T05:33:43;5.31;79.59
74946;HTU21D;63509;45.250;38.102;2023-11-21T05:36:09;5.27;79.59
74946;HTU21D;63509;45.250;38.102;2023-11-21T05:38:38;5.28;79.58
74946;HTU21D;63509;45.250;38.102;2023-11-21T05:41:07;5.27;79.59
74946;HTU21D;63509;45.250;38.102;2023-11-21T05:43:39;5.27;79.59
74946;HTU21D;63509;45.250;38.102;2023-11-21T05:46:06;5.31;79.58
74946;HTU21D;63509;45.250;38.102;2023-11-21T05:48:36;5.28;79.54
74946;HTU21D;63509;45.250;38.102;2023-11-21T05:51:06;5.31;79.55
74946;HTU21D;63509;45.250;38.102;2023-11-21T05:53:32;5.31;79.55
74946;HTU21D;63509;45.250;38.102;2023-11-21T05:55:58;5.30;79.58
74946;HTU21D;63509;45.250;38.102;2023-11-21T05:58:24;5.33;79.56
74946;HTU21D;63509;45.250;38.102;2023-11-21T06:00:51;5.32;79.52
74946;HTU21D;63509;45.250;38.102;2023-11-21T06:03:17;5.32;79.46
74946;HTU21D;63509;45.250;38.102;2023-11-21T06:05:46;5.32;79.47
74946;HTU21D;63509;45.250;38.102;2023-11-21T06:08:17;5.31;79.46
74946;HTU21D;63509;45.250;38.102;2023-11-21T06:10:46;5.32;79.45
74946;HTU21D;63509;45.250;38.102;2023-11-21T06:13:14;5.33;79.46
74946;HTU21D;63509;45.250;38.102;2023-11-21T06:15:41;5.35;79.43
74946;HTU21D;63509;45.250;38.102;2023-11-21T06:18:07;5.36;79.43
74946;HTU21D;63509;45.250;38.102;2023-11-21T06:20:35;5.37;79.43
74946;HTU21D;63509;45.250;38.102;2023-11-21T06:23:03;5.39;79.41
74946;HTU21D;63509;45.250;38.102;2023-11-21T06:25:29;5.41;79.39
74946;HTU21D;63509;45.250;38.102;2023-11-21T06:27:59;5.45;79.37
74946;HTU21D;63509;45.250;38.102;2023-11-21T06:30:25;5.47;79.34
74946;HTU21D;63509;45.250;38.102;2023-11-21T06:32:55;5.47;79.33
74946;HTU21D;63509;45.250;38.102;2023-11-21T06:35:21;5.47;79.31
74946;HTU21D;63509;45.250;38.102;2023-11-21T06:37:48;5.46;79.29
74946;HTU21D;63509;45.250;38.102;2023-11-21T06:40:14;5.45;79.34
74946;HTU21D;63509;45.250;38.102;2023-11-21T06:42:44;5.43;79.33
74946;HTU21D;63509;45.250;38.102;2023-11-21T06:45:10;5.42;79.31
74946;HTU21D;63509;45.250;38.102;2023-11-21T06:47:37;5.40;79.31
74946;HTU21D;63509;45.250;38.102;2023-11-21T06:50:04;5.37;79.31
74946;HTU21D;63509;45.250;38.102;2023-11-21T06:52:30;5.36;79.30
74946;HTU21D;63509;45.250;38.102;2023-11-21T06:54:56;5.36;79.26
74946;HTU21D;63509;45.250;38.102;2023-11-21T06:57:23;5.34;79.27
74946;HTU21D;63509;45.250;38.102;2023-11-21T06:59:49;5.37;79.30
74946;HTU21D;63509;45.250;38.102;2023-11-21T07:02:18;5.39;79.26
74946;HTU21D;63509;45.250;38.102;2023-11-21T07:04:47;5.45;79.21
74946;HTU21D;63509;45.250;38.102;2023-11-21T07:07:13;5.46;79.18
74946;HTU21D;63509;45.250;38.102;2023-11-21T07:09:39;5.45;79.15
74946;HTU21D;63509;45.250;38.102;2023-11-21T07:12:06;5.46;79.14
74946;HTU21D;63509;45.250;38.102;2023-11-21T07:14:36;5.47;79.12
74946;HTU21D;63509;45.250;38.102;2023-11-21T07:17:04;5.49;79.09
74946;HTU21D;63509;45.250;38.102;2023-11-21T07:19:32;5.51;79.10
74946;HTU21D;63509;45.250;38.102;2023-11-21T07:21:58;5.55;79.11
74946;HTU21D;63509;45.250;38.102;2023-11-21T07:24:24;5.61;79.08
74946;HTU21D;63509;45.250;38.102;2023-11-21T07:26:50;5.64;79.04
74946;HTU21D;63509;45.250;38.102;2023-11-21T07:29:16;5.66;78.98
74946;HTU21D;63509;45.250;38.102;2023-11-21T07:31:42;5.67;79.03
74946;HTU21D;63509;45.250;38.102;2023-11-21T07:34:08;5.69;78.98
74946;HTU21D;63509;45.250;38.102;2023-11-21T07:36:34;5.70;78.99
74946;HTU21D;63509;45.250;38.102;2023-11-21T07:39:01;5.72;78.98
74946;HTU21D;63509;45.250;38.102;2023-11-21T07:41:28;5.74;78.95
74946;HTU21D;63509;45.250;38.102;2023-11-21T07:44:14;5.79;78.90
74946;HTU21D;63509;45.250;38.102;2023-11-21T07:46:54;5.80;78.88
74946;HTU21D;63509;45.250;38.102;2023-11-21T07:49:26;5.82;78.87
74946;HTU21D;63509;45.250;38.102;2023-11-21T07:51:53;5.83;78.80
74946;HTU21D;63509;45.250;38.102;2023-11-21T07:54:19;5.79;78.82
74946;HTU21D;63509;45.250;38.102;2023-11-21T07:56:47;5.79;78.80
74946;HTU21D;63509;45.250;38.102;2023-11-21T07:59:14;5.76;78.84
74946;HTU21D;63509;45.250;38.102;2023-11-21T08:01:40;5.76;78.83
74946;HTU21D;63509;45.250;38.102;2023-11-21T08:04:07;5.74;78.81
74946;HTU21D;63509;45.250;38.102;2023-11-21T08:06:33;5.72;78.82
74946;HTU21D;63509;45.250;38.102;2023-11-21T08:09:00;5.74;78.84
74946;HTU21D;63509;45.250;38.102;2023-11-21T08:11:26;5.77;78.82
74946;HTU21D;63509;45.250;38.102;2023-11-21T08:13:55;5.78;78.75
74946;HTU21D;63509;45.250;38.102;2023-11-21T08:16:21;5.80;78.74
74946;HTU21D;63509;45.250;38.102;2023-11-21T08:18:47;5.82;78.70
74946;HTU21D;63509;45.250;38.102;2023-11-21T08:21:14;5.83;78.66
74946;HTU21D;63509;45.250;38.102;2023-11-21T08:23:44;5.83;78.67
74946;HTU21D;63509;45.250;38.102;2023-11-21T08:26:10;5.86;78.66
74946;HTU21D;63509;45.250;38.102;2023-11-21T08:28:36;5.89;78.60
74946;HTU21D;63509;45.250;38.102;2023-11-21T08:31:03;5.90;78.57
74946;HTU21D;63509;45.250;38.102;2023-11-21T08:33:30;5.92;78.53
74946;HTU21D;63509;45.250;38.102;2023-11-21T08:35:56;5.90;78.50
74946;HTU21D;63509;45.250;38.102;2023-11-21T08:38:22;5.89;78.49
74946;HTU21D;63509;45.250;38.102;2023-11-21T08:40:48;5.87;78.47
74946;HTU21D;63509;45.250;38.102;2023-11-21T08:43:15;5.86;78.43
74946;HTU21D;63509;45.250;38.102;2023-11-21T08:45:42;5.85;78.42
74946;HTU21D;63509;45.250;38.102;2023-11-21T08:48:08;5.84;78.44
74946;HTU21D;63509;45.250;38.102;2023-11-21T08:50:34;5.84;78.41
74946;HTU21D;63509;45.250;38.102;2023-11-21T08:53:00;5.83;78.41
74946;HTU21D;63509;45.250;38.102;2023-11-21T08:55:26;5.81;78.41
74946;HTU21D;63509;45.250;38.102;2023-11-21T08:57:53;5.81;78.43
74946;HTU21D;63509;45.250;38.102;2023-11-21T09:00:19;5.82;78.40
74946;HTU21D;63509;45.250;38.102;2023-11-21T09:02:46;5.82;78.40
74946;HTU21D;63509;45.250;38.102;2023-11-21T09:05:13;5.83;78.42
74946;HTU21D;63509;45.250;38.102;2023-11-21T09:07:40;5.85;78.39
74946;HTU21D;63509;45.250;38.102;2023-11-21T09:10:07;5.86;78.39
74946;HTU21D;63509;45.250;38.102;2023-11-21T09:12:35;5.90;78.37
74946;HTU21D;63509;45.250;38.102;2023-11-21T09:15:05;5.92;78.39
74946;HTU21D;63509;45.250;38.102;2023-11-21T09:17:35;5.94;78.37
74946;HTU21D;63509;45.250;38.102;2023-11-21T09:20:02;5.96;78.35
74946;HTU21D;63509;45.250;38.102;2023-11-21T09:22:31;6.00;78.34
74946;HTU21D;63509;45.250;38.102;2023-11-21T09:25:08;6.04;78.30
74946;HTU21D;63509;45.250;38.102;2023-11-21T09:27:35;6.07;78.34
74946;HTU21D;63509;45.250;38.102;2023-11-21T09:30:01;6.12;78.34
74946;HTU21D;63509;45.250;38.102;2023-11-21T09:32:28;6.15;78.30
74946;HTU21D;63509;45.250;38.102;2023-11-21T09:34:55;6.19;78.27
74946;HTU21D;63509;45.250;38.102;2023-11-21T09:37:24;6.21;78.27
74946;HTU21D;63509;45.250;38.102;2023-11-21T09:39:52;6.25;78.26
74946;HTU21D;63509;45.250;38.102;2023-11-21T09:42:26;6.29;78.28
74946;HTU21D;63509;45.250;38.102;2023-11-21T09:45:27;6.34;78.27
74946;HTU21D;63509;45.250;38.102;2023-11-21T09:47:55;6.36;78.24
74946;HTU21D;63509;45.250;38.102;2023-11-21T09:50:22;6.37;78.22
74946;HTU21D;63509;45.250;38.102;2023-11-21T09:53:14;6.38;78.19
74946;HTU21D;63509;45.250;38.102;2023-11-21T09:55:44;6.38;78.18
74946;HTU21D;63509;45.250;38.102;2023-11-21T09:58:11;6.35;78.14
74946;HTU21D;63509;45.250;38.102;2023-11-21T10:00:41;6.35;78.15
74946;HTU21D;63509;45.250;38.102;2023-11-21T10:03:08;6.35;78.15
74946;HTU21D;63509;45.250;38.102;2023-11-21T10:05:38;6.36;78.15
74946;HTU21D;63509;45.250;38.102;2023-11-21T10:08:08;6.35;78.11
74946;HTU21D;63509;45.250;38.102;2023-11-21T10:10:37;6.30;78.08
74946;HTU21D;63509;45.250;38.102;2023-11-21T10:13:09;6.28;78.14
74946;HTU21D;63509;45.250;38.102;2023-11-21T10:15:38;6.29;78.16
74946;HTU21D;63509;45.250;38.102;2023-11-21T10:18:05;6.30;78.19
74946;HTU21D;63509;45.250;38.102;2023-11-21T10:20:33;6.30;78.13
74946;HTU21D;63509;45.250;38.102;2023-11-21T10:23:01;6.25;78.14
74946;HTU21D;63509;45.250;38.102;2023-11-21T10:25:32;6.20;78.27
74946;HTU21D;63509;45.250;38.102;2023-11-21T10:32:00;6.17;78.23
74946;HTU21D;63509;45.250;38.102;2023-11-21T10:34:32;6.16;78.26
74946;HTU21D;63509;45.250;38.102;2023-11-21T10:37:20;6.19;78.30
74946;HTU21D;63509;45.250;38.102;2023-11-21T10:39:47;6.20;78.38
74946;HTU21D;63509;45.250;38.102;2023-11-21T10:42:27;6.23;78.41
74946;HTU21D;63509;45.250;38.102;2023-11-21T10:45:19;6.25;78.42
74946;HTU21D;63509;45.250;38.102;2023-11-21T10:47:54;6.28;78.40
74946;HTU21D;63509;45.250;38.102;2023-11-21T10:50:33;6.28;78.36
74946;HTU21D;63509;45.250;38.102;2023-11-21T10:53:09;6.35;78.33
74946;HTU21D;63509;45.250;38.102;2023-11-21T10:55:38;6.35;78.31
74946;HTU21D;63509;45.250;38.102;2023-11-21T10:58:10;6.34;78.27
74946;HTU21D;63509;45.250;38.102;2023-11-21T11:00:42;6.33;78.26
74946;HTU21D;63509;45.250;38.102;2023-11-21T11:32:42;6.46;78.15
74946;HTU21D;63509;45.250;38.102;2023-11-21T11:35:22;6.49;78.11
74946;HTU21D;63509;45.250;38.102;2023-11-21T11:37:57;6.49;78.04
74946;HTU21D;63509;45.250;38.102;2023-11-21T11:40:57;6.46;78.02
74946;HTU21D;63509;45.250;38.102;2023-11-21T11:43:27;6.45;77.98
74946;HTU21D;63509;45.250;38.102;2023-11-21T11:45:57;6.46;77.98
74946;HTU21D;63509;45.250;38.102;2023-11-21T11:48:37;6.44;77.94
74946;HTU21D;63509;45.250;38.102;2023-11-21T11:51:13;6.44;77.92
74946;HTU21D;63509;45.250;38.102;2023-11-21T11:53:46;6.43;77.86
74946;HTU21D;63509;45.250;38.102;2023-11-21T11:58:46;6.40;77.82
74946;HTU21D;63509;45.250;38.102;2023-11-21T12:01:20;6.39;77.82
74946;HTU21D;63509;45.250;38.102;2023-11-21T12:07:02;6.36;77.76
74946;HTU21D;63509;45.250;38.102;2023-11-21T12:27:07;6.24;77.67
74946;HTU21D;63509;45.250;38.102;2023-11-21T12:41:18;6.24;77.51
74946;HTU21D;63509;45.250;38.102;2023-11-21T12:43:45;6.24;77.47
74946;HTU21D;63509;45.250;38.102;2023-11-21T12:46:13;6.26;77.44
74946;HTU21D;63509;45.250;38.102;2023-11-21T12:48:44;6.28;77.32
74946;HTU21D;63509;45.250;38.102;2023-11-21T12:51:21;6.31;77.24
74946;HTU21D;63509;45.250;38.102;2023-11-21T12:53:48;6.33;77.09
74946;HTU21D;63509;45.250;38.102;2023-11-21T12:56:24;6.29;77.08
74946;HTU21D;63509;45.250;38.102;2023-11-21T12:58:54;6.30;77.03
74946;HTU21D;63509;45.250;38.102;2023-11-21T13:01:34;6.29;77.02
74946;HTU21D;63509;45.250;38.102;2023-11-21T13:04:35;6.29;76.93
74946;HTU21D;63509;45.250;38.102;2023-11-21T13:07:41;6.28;76.96
74946;HTU21D;63509;45.250;38.102;2023-11-21T13:10:35;6.30;76.95
74946;HTU21D;63509;45.250;38.102;2023-11-21T13:13:05;6.30;76.93
74946;HTU21D;63509;45.250;38.102;2023-11-21T13:15:53;6.30;76.89
74946;HTU21D;63509;45.250;38.102;2023-11-21T13:18:57;6.30;76.88
74946;HTU21D;63509;45.250;38.102;2023-11-21T13:24:09;6.25;76.87
74946;HTU21D;63509;45.250;38.102;2023-11-21T13:27:19;6.25;76.82
74946;HTU21D;63509;45.250;38.102;2023-11-21T13:30:06;6.25;76.81
74946;HTU21D;63509;45.250;38.102;2023-11-21T13:36:25;6.21;76.79
74946;HTU21D;63509;45.250;38.102;2023-11-21T13:39:25;6.20;76.75
74946;HTU21D;63509;45.250;38.102;2023-11-21T13:41:58;6.20;76.76
74946;HTU21D;63509;45.250;38.102;2023-11-21T13:49:51;6.20;76.68
74946;HTU21D;63509;45.250;38.102;2023-11-21T13:52:26;6.21;76.60
74946;HTU21D;63509;45.250;38.102;2023-11-21T13:55:13;6.22;76.60
74946;HTU21D;63509;45.250;38.102;2023-11-21T13:58:03;6.23;76.48
74946;HTU21D;63509;45.250;38.102;2023-11-21T14:00:59;6.22;76.42
74946;HTU21D;63509;45.250;38.102;2023-11-21T14:03:43;6.16;76.43
74946;HTU21D;63509;45.250;38.102;2023-11-21T14:06:30;6.13;76.49
74946;HTU21D;63509;45.250;38.102;2023-11-21T14:09:09;6.13;76.48
74946;HTU21D;63509;45.250;38.102;2023-11-21T14:11:47;6.12;76.48
74946;HTU21D;63509;45.250;38.102;2023-11-21T14:14:33;6.14;76.44
74946;HTU21D;63509;45.250;38.102;2023-11-21T14:17:29;6.15;76.40
74946;HTU21D;63509;45.250;38.102;2023-11-21T14:20:34;6.16;76.38
74946;HTU21D;63509;45.250;38.102;2023-11-21T14:23:48;6.14;76.37
74946;HTU21D;63509;45.250;38.102;2023-11-21T14:26:37;6.13;76.37
74946;HTU21D;63509;45.250;38.102;2023-11-21T14:29:25;6.12;76.37
74946;HTU21D;63509;45.250;38.102;2023-11-21T14:32:34;6.13;76.35
74946;HTU21D;63509;45.250;38.102;2023-11-21T14:35:28;6.16;76.33
74946;HTU21D;63509;45.250;38.102;2023-11-21T14:38:36;6.17;76.30
74946;HTU21D;63509;45.250;38.102;2023-11-21T14:41:30;6.23;76.35
74946;HTU21D;63509;45.250;38.102;2023-11-21T14:43:58;6.30;76.28
74946;HTU21D;63509;45.250;38.102;2023-11-21T14:46:25;6.37;76.21
74946;HTU21D;63509;45.250;38.102;2023-11-21T14:48:51;6.44;76.11
74946;HTU21D;63509;45.250;38.102;2023-11-21T14:51:36;6.52;76.04
74946;HTU21D;63509;45.250;38.102;2023-11-21T14:54:22;6.57;75.95
74946;HTU21D;63509;45.250;38.102;2023-11-21T14:57:08;6.61;75.86
74946;HTU21D;63509;45.250;38.102;2023-11-21T14:59:42;6.66;75.78
74946;HTU21D;63509;45.250;38.102;2023-11-21T15:02:08;6.71;75.70
74946;HTU21D;63509;45.250;38.102;2023-11-21T15:04:47;6.75;75.60
74946;HTU21D;63509;45.250;38.102;2023-11-21T15:07:25;6.78;75.54
74946;HTU21D;63509;45.250;38.102;2023-11-21T15:09:56;6.81;75.47
74946;HTU21D;63509;45.250;38.102;2023-11-21T15:23:38;6.83;75.39
74946;HTU21D;63509;45.250;38.102;2023-11-21T15:29:21;6.83;75.41
74946;HTU21D;63509;45.250;38.102;2023-11-21T15:32:10;6.84;75.39
74946;HTU21D;63509;45.250;38.102;2023-11-21T15:34:52;6.84;75.34
74946;HTU21D;63509;45.250;38.102;2023-11-21T15:37:46;6.83;75.32
74946;HTU21D;63509;45.250;38.102;2023-11-21T15:40:13;6.82;75.30
74946;HTU21D;63509;45.250;38.102;2023-11-21T15:51:32;6.79;75.31
74946;HTU21D;63509;45.250;38.102;2023-11-21T15:54:03;6.80;75.28
74946;HTU21D;63509;45.250;38.102;2023-11-21T15:56:29;6.81;75.38
74946;HTU21D;63509;45.250;38.102;2023-11-21T15:58:58;6.85;75.37
74946;HTU21D;63509;45.250;38.102;2023-11-21T16:01:24;6.89;75.44
74946;HTU21D;63509;45.250;38.102;2023-11-21T16:03:52;6.93;75.32
74946;HTU21D;63509;45.250;38.102;2023-11-21T16:06:22;6.91;75.26
74946;HTU21D;63509;45.250;38.102;2023-11-21T16:08:58;6.89;75.31
74946;HTU21D;63509;45.250;38.102;2023-11-21T16:11:24;6.88;75.28
74946;HTU21D;63509;45.250;38.102;2023-11-21T16:13:59;6.88;75.25
74946;HTU21D;63509;45.250;38.102;2023-11-21T16:16:25;6.88;75.20
74946;HTU21D;63509;45.250;38.102;2023-11-21T16:18:54;6.86;75.17
74946;HTU21D;63509;45.250;38.102;2023-11-21T16:21:57;6.85;75.16
74946;HTU21D;63509;45.250;38.102;2023-11-21T16:30:43;6.74;75.17
74946;HTU21D;63509;45.250;38.102;2023-11-21T16:33:10;6.71;75.16
74946;HTU21D;63509;45.250;38.102;2023-11-21T16:35:37;6.71;75.20
74946;HTU21D;63509;45.250;38.102;2023-11-21T16:38:05;6.70;75.21
74946;HTU21D;63509;45.250;38.102;2023-11-21T16:40:35;6.69;75.19
74946;HTU21D;63509;45.250;38.102;2023-11-21T16:43:07;6.68;75.21
74946;HTU21D;63509;45.250;38.102;2023-11-21T16:45:40;6.70;75.20
74946;HTU21D;63509;45.250;38.102;2023-11-21T16:48:18;6.68;75.19
74946;HTU21D;63509;45.250;38.102;2023-11-21T16:50:44;6.67;75.18
74946;HTU21D;63509;45.250;38.102;2023-11-21T16:53:11;6.66;75.16
74946;HTU21D;63509;45.250;38.102;2023-11-21T16:55:38;6.65;75.16
74946;HTU21D;63509;45.250;38.102;2023-11-21T16:58:05;6.64;75.16
74946;HTU21D;63509;45.250;38.102;2023-11-21T17:00:31;6.63;75.14
74946;HTU21D;63509;45.250;38.102;2023-11-21T17:02:58;6.61;75.14
74946;HTU21D;63509;45.250;38.102;2023-11-21T17:05:49;6.60;75.11
74946;HTU21D;63509;45.250;38.102;2023-11-21T17:08:20;6.58;75.12
74946;HTU21D;63509;45.250;38.102;2023-11-21T17:10:47;6.55;75.11
74946;HTU21D;63509;45.250;38.102;2023-11-21T17:13:22;6.53;75.17
74946;HTU21D;63509;45.250;38.102;2023-11-21T17:15:48;6.53;75.18
74946;HTU21D;63509;45.250;38.102;2023-11-21T17:18:17;6.50;75.18
74946;HTU21D;63509;45.250;38.102;2023-11-21T17:20:43;6.49;75.23
74946;HTU21D;63509;45.250;38.102;2023-11-21T17:23:13;6.48;75.17
74946;HTU21D;63509;45.250;38.102;2023-11-21T17:25:39;6.46;75.16
74946;HTU21D;63509;45.250;38.102;2023-11-21T17:28:07;6.45;75.21